Weather observations for the past three days for
Hoquiam, Bowerman Airport
Metric (Imperial)
Date Time (pdt) Wind (kph) Vis. (km) Weather Sky Cond. Temperature (ºC) Relative Humidity Wind Chill (°C) Heat Index (°C) Pressure Precipitation (cm)
Air Dwpt 6 hour altimeter (cm) sea level (mb) 1 hr 3 hr 6 hr
Max. Min.
02 14:53 W 17 16.09 Fair CLR 19.4 12.2 63% 76.1 1014.8
02 13:53 W 13 16.09 Fair CLR 18.9 11.7 63% 76.12 1015.3
02 12:53 W 13 16.09 Fair CLR 17.2 11.7 70% 76.17 1015.9
02 11:53 Vrbl 6 16.09 Fair CLR 15 11.1 78% 76.2 1016.3
02 10:53 S 6 16.09 Fair CLR 12.2 9.4 12.2 10 83% 76.25 1017.0
02 09:53 SE 6 16.09 Overcast OVC006 11.1 9.4 89% 76.3 1017.5
02 08:53 S 6 16.09 Overcast OVC005 10 8.9 93% 76.3 1017.6
02 07:53 Calm 16.09 Overcast OVC005 10 8.3 89% 76.28 1017.3
02 06:53 Calm 16.09 Overcast OVC005 10 8.3 89% 76.28 1017.1
02 05:53 N 6 16.09 Overcast OVC006 10 8.3 89% 76.25 1017.0
02 04:53 N 7 16.09 Overcast OVC007 10 8.3 11.1 10 89% 9 76.3 1017.4
02 03:53 N 7 16.09 Overcast OVC007 10.6 8.3 86% 76.33 1017.9
02 02:53 NW 11 16.09 Overcast OVC008 10.6 8.9 89% 76.33 1017.8
02 01:53 NW 9 16.09 Overcast OVC009 10.6 8.3 86% 76.33 1018.0
02 00:53 NW 7 16.09 Overcast OVC009 11.1 8.3 83% 76.35 1018.2
01 23:53 NW 15 16.09 Overcast OVC010 11.1 8.3 83% 76.35 1018.2
01 22:53 NW 11 16.09 Overcast OVC011 11.1 8.3 13.3 11.1 83% 76.33 1018.1
01 21:53 W 17 16.09 Overcast OVC011 11.1 8.3 83% 76.35 1018.1
01 20:53 W 19 G 37 16.09 Overcast OVC011 11.1 8.9 86% 76.33 1017.8
01 19:53 W 17 16.09 Overcast OVC011 11.7 8.9 83% 76.3 1017.4
01 18:53 W 19 16.09 Overcast OVC009 11.7 9.4 86% 76.28 1017.4
01 17:53 W 22 G 33 16.09 Overcast OVC010 12.2 8.9 80% 76.28 1017.3
01 16:53 W 22 16.09 Mostly Cloudy BKN013 13.3 9.4 15 12.2 77% 76.28 1017.3
01 15:53 W 20 G 37 16.09 A Few Clouds FEW014 13.3 10 81% 76.3 1017.6
01 14:53 W 24 16.09 Fair CLR 13.9 10 78% 76.33 1017.9
01 13:53 W 26 16.09 Fair CLR 14.4 10 75% 76.33 1018.0
01 12:53 W 26 16.09 Fair CLR 13.9 10 78% 76.33 1018.1
01 11:53 W 28 16.09 Fair CLR 13.9 10.6 81% 76.35 1018.3
01 10:53 W 15 16.09 Overcast OVC010 12.2 10 12.2 9.4 87% 76.38 1018.4
01 09:53 S 6 16.09 Overcast OVC008 11.1 8.9 86% 76.35 1018.3
01 08:53 Calm 14.48 Overcast OVC006 10.6 8.9 89% 76.35 1018.3
01 07:53 Calm 12.87 Overcast OVC004 10 8.9 93% 76.35 1018.1
01 06:53 N 9 11.27 Overcast OVC004 9.4 8.9 97% 8 76.3 1017.5
01 05:53 NW 7 8.05 Fog/Mist OVC002 9.4 8.9 97% 9 76.28 1017.3
01 04:53 NW 9 14.48 Partly Cloudy SCT005 10 8.9 12.8 10 93% 9 76.28 1017.3
01 03:53 W 7 16.09 Fair CLR 10.6 8.9 89% 76.28 1017.1
01 02:53 Calm 16.09 Fair CLR 10.6 8.9 89% 76.28 1017.1
01 01:53 Calm 16.09 Fair CLR 10.6 8.9 89% 76.28 1017.2
01 00:53 W 6 16.09 Fair CLR 10.6 8.9 89% 76.28 1017.4
30 23:53 W 9 16.09 Fair CLR 11.7 10 89% 76.25 1017.0
30 22:53 W 13 16.09 Fair CLR 12.8 9.4 21.1 12.2 80% 76.25 1016.7
30 21:53 W 6 16.09 Fair CLR 13.3 8.9 75% 76.23 1016.4
30 20:53 Vrbl 6 16.09 Fair CLR 15 8.3 64% 76.2 1016.2
30 19:53 Vrbl 7 16.09 Fair CLR 16.7 10.6 67% 76.2 1016.1
30 18:53 N 15 16.09 Fair CLR 18.9 10 56% 76.2 1016.2
30 17:53 N 17 G 35 16.09 Fair CLR 19.4 8.3 49% 76.23 1016.4
30 16:53 NW 13 16.09 Fair CLR 21.1 10 21.1 15.6 49% 76.23 1016.7
30 15:53 W 22 16.09 Fair CLR 20.6 10.6 53% 76.3 1017.5
30 14:53 W 15 16.09 Fair CLR 20 11.1 57% 76.35 1018.1
30 13:53 W 19 16.09 Fair CLR 19.4 11.7 61% 76.38 1018.5
30 12:53 W 17 16.09 Fair CLR 17.8 11.1 65% 76.4 1019.1
30 11:53 SW 9 16.09 Fair CLR 16.7 10 65% 76.45 1019.7
30 10:53 S 7 16.09 Fair CLR 15.6 10.6 15.6 6.7 72% 76.48 1020.1
30 09:53 SE 7 16.09 Fair CLR 13.3 9.4 77% 76.5 1020.4
30 08:53 E 9 16.09 Fair CLR 10.6 8.9 89% 76.53 1020.8
30 07:53 E 11 16.09 Fair CLR 8.9 7.2 89% 7 76.58 1021.3
30 06:53 Calm 16.09 Fair CLR 7.8 6.7 93% 76.61 1021.6
30 05:53 E 6 11.27 Fair CLR 6.7 6.1 96% 76.58 1021.1
30 04:53 Calm 11.27 Fair CLR 7.2 6.7 10 6.7 97% 76.58 1021.3
30 03:53 E 11 9.66 Fog/Mist CLR 7.2 6.7 97% 5 76.58 1021.1
30 02:53 Calm 16.09 Fair CLR 7.2 6.7 97% 76.61 1021.6
30 01:53 Calm 16.09 Fair CLR 7.8 7.2 96% 76.63 1021.9
30 00:53 Calm 16.09 Fair CLR 9.4 7.8 90% 76.66 1022.2
29 23:53 Calm 16.09 Fair CLR 9.4 7.8 90% 76.63 1022.1
29 22:53 Calm 16.09 Fair CLR 10 8.3 16.7 9.4 89% 76.66 1022.4
29 21:53 NW 6 16.09 Fair CLR 10.6 8.9 89% 76.68 1022.6
29 20:53 NW 11 16.09 Fair CLR 11.1 8.9 86% 76.66 1022.4
29 19:53 W 13 16.09 Fair CLR 13.3 9.4 77% 76.63 1022.1
29 18:53 W 17 16.09 Fair CLR 14.4 9.4 72% 76.66 1022.2
29 17:53 W 17 16.09 Fair CLR 16.1 7.8 58% 76.68 1022.6
29 16:53 W 19 16.09 Fair CLR 16.1 7.8 16.7 12.8 58% 76.68 1022.8
29 15:53 W 20 16.09 Fair CLR 16.7 7.8 56% 76.73 1023.5
Date Time (pdt) Wind (kph) Vis. (km) Weather Sky Cond. Air Dwpt Max. Min. Relative Humidity Wind Chill (°C) Heat Index (°C) altimeter (cm) sea level (mb) 1 hr 3 hr 6 hr
6 hour
Temperature (ºC) Pressure Precipitation (cm)